createdAt,value
2022-08-03T00:00:03.039Z,0.00
2022-08-03T00:01:03.538Z,0.00
2022-08-03T00:02:03.216Z,0.00
2022-08-03T00:03:03.086Z,0.00
2022-08-03T00:04:03.407Z,0.00
2022-08-03T00:05:03.671Z,0.00
2022-08-03T00:06:04.972Z,0.00
2022-08-03T00:07:02.841Z,0.00
2022-08-03T00:08:03.105Z,0.00
2022-08-03T00:09:02.699Z,0.00
2022-08-03T00:10:03.065Z,0.00
2022-08-03T00:11:02.684Z,0.00
2022-08-03T00:12:03.487Z,0.00
2022-08-03T00:13:03.148Z,0.00
2022-08-03T00:14:03.604Z,0.00
2022-08-03T00:15:03.276Z,0.00
2022-08-03T00:16:03.484Z,0.00
2022-08-03T00:17:02.863Z,0.00
2022-08-03T00:18:03.427Z,0.00
2022-08-03T00:19:03.091Z,0.00
2022-08-03T00:20:02.801Z,0.00
2022-08-03T00:21:02.596Z,0.00
2022-08-03T00:22:03.170Z,0.00
2022-08-03T00:23:03.520Z,0.00
2022-08-03T00:24:03.150Z,0.00
2022-08-03T00:25:03.501Z,0.00
2022-08-03T00:26:02.933Z,0.00
2022-08-03T00:27:03.506Z,0.00
2022-08-03T00:28:03.823Z,0.00
2022-08-03T00:29:03.408Z,0.00
2022-08-03T00:30:03.691Z,0.00
2022-08-03T00:31:03.312Z,0.00
2022-08-03T00:32:03.597Z,0.00
2022-08-03T00:33:03.897Z,0.00
2022-08-03T00:34:04.303Z,0.00
2022-08-03T00:35:08.310Z,0.00
2022-08-03T00:36:03.499Z,0.00
2022-08-03T00:37:03.873Z,0.00
2022-08-03T00:38:03.538Z,0.00
2022-08-03T00:39:04.131Z,0.00
2022-08-03T00:40:03.697Z,0.00
2022-08-03T00:41:03.951Z,0.00
2022-08-03T00:42:03.334Z,0.00
2022-08-03T00:43:03.585Z,0.00
2022-08-03T00:44:03.476Z,0.00
2022-08-03T00:45:03.442Z,0.00
2022-08-03T00:46:03.096Z,0.00
2022-08-03T00:47:03.353Z,0.00
2022-08-03T00:48:03.590Z,0.00
2022-08-03T00:49:03.229Z,0.00
2022-08-03T00:50:03.510Z,0.00
2022-08-03T00:51:03.180Z,0.00
2022-08-03T00:52:09.452Z,0.00
2022-08-03T00:53:03.307Z,0.00
2022-08-03T00:54:03.708Z,0.00
2022-08-03T00:55:03.574Z,0.00
2022-08-03T00:56:03.136Z,0.00
2022-08-03T00:57:03.648Z,0.00
2022-08-03T00:58:03.575Z,0.00
2022-08-03T00:59:03.903Z,0.00
2022-08-03T01:00:03.531Z,0.00
2022-08-03T01:01:03.959Z,0.00
2022-08-03T01:02:03.274Z,0.00
2022-08-03T01:03:03.526Z,0.00
2022-08-03T01:04:03.194Z,0.00
2022-08-03T01:05:03.361Z,0.00
2022-08-03T01:06:03.505Z,0.00
2022-08-03T01:07:03.449Z,0.00
2022-08-03T01:08:04.041Z,0.00
2022-08-03T01:09:04.041Z,0.00
2022-08-03T01:10:03.677Z,0.00
2022-08-03T01:11:03.978Z,0.00
2022-08-03T01:12:04.202Z,0.00
2022-08-03T01:13:04.438Z,0.00
2022-08-03T01:14:18.406Z,0.00
2022-08-03T01:15:04.304Z,0.00
2022-08-03T01:16:04.481Z,0.00
2022-08-03T01:17:03.832Z,0.00
2022-08-03T01:18:03.799Z,0.00
2022-08-03T01:19:03.863Z,0.00
2022-08-03T01:20:03.518Z,0.00
2022-08-03T01:21:03.776Z,0.00
2022-08-03T01:22:03.871Z,0.00
2022-08-03T01:23:04.087Z,0.00
2022-08-03T01:24:03.618Z,0.00
2022-08-03T01:25:04.032Z,0.00
2022-08-03T01:26:03.914Z,0.00
2022-08-03T01:27:03.782Z,0.00
2022-08-03T01:28:03.761Z,0.00
2022-08-03T01:29:03.942Z,0.00
2022-08-03T01:30:03.932Z,0.00
2022-08-03T01:31:04.079Z,0.00
2022-08-03T01:33:00.085Z,0.00
2022-08-03T01:33:05.077Z,0.00
2022-08-03T01:34:03.757Z,0.00
2022-08-03T01:35:04.100Z,0.00
2022-08-03T01:36:03.878Z,0.00
2022-08-03T01:37:04.065Z,0.00
2022-08-03T01:38:04.320Z,0.00
2022-08-03T01:39:04.448Z,0.00
2022-08-03T01:40:03.989Z,0.00
2022-08-03T01:41:04.432Z,0.00
2022-08-03T01:42:03.075Z,0.00
2022-08-03T01:43:03.681Z,0.00
2022-08-03T01:44:29.090Z,0.00
2022-08-03T01:45:03.790Z,0.00
2022-08-03T01:46:03.535Z,0.00
2022-08-03T01:47:03.830Z,0.00
2022-08-03T01:48:03.477Z,0.00
2022-08-03T01:49:09.028Z,0.00
2022-08-03T01:50:03.371Z,0.00
2022-08-03T01:51:03.637Z,0.00
2022-08-03T01:52:05.195Z,0.00
2022-08-03T01:53:04.073Z,0.00
2022-08-03T01:54:03.562Z,0.00
2022-08-03T01:55:03.692Z,0.00
2022-08-03T01:56:03.427Z,0.00
2022-08-03T01:57:03.949Z,0.00
2022-08-03T01:58:06.147Z,0.00
2022-08-03T01:59:03.491Z,0.00
2022-08-03T02:00:04.360Z,0.00
2022-08-03T02:01:03.977Z,0.00
2022-08-03T02:02:29.052Z,0.00
2022-08-03T02:03:03.393Z,0.00
2022-08-03T02:04:02.754Z,0.00
2022-08-03T02:05:03.312Z,0.00
2022-08-03T02:07:00.579Z,0.00
2022-08-03T02:07:03.639Z,0.00
2022-08-03T02:08:03.283Z,0.00
2022-08-03T02:09:03.276Z,0.00
2022-08-03T02:10:02.947Z,0.00
2022-08-03T02:11:03.309Z,0.00
2022-08-03T02:12:03.171Z,0.00
2022-08-03T02:13:03.565Z,0.00
2022-08-03T02:14:03.272Z,0.00
2022-08-03T02:15:03.751Z,0.00
2022-08-03T02:16:03.682Z,0.00
2022-08-03T02:17:03.990Z,0.00
2022-08-03T02:18:03.586Z,0.00
2022-08-03T02:19:03.943Z,0.00
2022-08-03T02:20:03.550Z,0.00
2022-08-03T02:21:10.847Z,0.00
2022-08-03T02:22:04.223Z,0.00
2022-08-03T02:23:03.979Z,0.00
2022-08-03T02:24:03.742Z,0.00
2022-08-03T02:25:04.160Z,0.00
2022-08-03T02:26:04.066Z,0.00
2022-08-03T02:27:03.563Z,0.00
2022-08-03T02:28:03.248Z,0.00
2022-08-03T02:29:02.935Z,0.00
2022-08-03T02:30:03.420Z,0.00
2022-08-03T02:31:03.483Z,0.00
2022-08-03T02:32:03.938Z,0.00
2022-08-03T02:33:03.649Z,0.00
2022-08-03T02:34:03.368Z,0.00
2022-08-03T02:35:03.845Z,0.00
2022-08-03T02:36:03.816Z,0.00
2022-08-03T02:37:04.264Z,0.00
2022-08-03T02:38:03.862Z,0.00
2022-08-03T02:39:03.898Z,0.00
2022-08-03T02:40:04.286Z,0.00
2022-08-03T02:41:04.393Z,0.00
2022-08-03T02:42:03.887Z,0.00
2022-08-03T02:43:03.898Z,0.00
2022-08-03T02:44:07.134Z,0.00
2022-08-03T02:45:03.581Z,0.00
2022-08-03T02:46:03.257Z,0.00
2022-08-03T02:47:03.709Z,0.00
2022-08-03T02:48:04.100Z,0.00
2022-08-03T02:49:40.995Z,0.00
2022-08-03T02:50:04.444Z,0.00
2022-08-03T02:51:04.188Z,0.00
2022-08-03T02:52:03.938Z,0.00
2022-08-03T02:53:04.265Z,0.00
2022-08-03T02:54:04.244Z,0.00
2022-08-03T02:55:04.013Z,0.00
2022-08-03T02:56:04.155Z,0.00
2022-08-03T02:57:03.481Z,0.00
2022-08-03T02:58:03.711Z,0.00
2022-08-03T02:59:03.678Z,0.00
2022-08-03T03:00:03.793Z,0.00
2022-08-03T03:01:04.158Z,0.00
2022-08-03T03:02:02.766Z,0.00
2022-08-03T03:03:02.838Z,0.00
2022-08-03T03:04:03.251Z,0.00
2022-08-03T03:05:53.117Z,0.00
2022-08-03T03:06:05.651Z,0.00
2022-08-03T03:07:03.641Z,0.00
2022-08-03T03:08:03.380Z,0.00
2022-08-03T03:09:02.785Z,0.00
2022-08-03T03:10:03.269Z,0.00
2022-08-03T03:11:02.627Z,0.00
2022-08-03T03:12:03.043Z,0.00
2022-08-03T03:13:03.357Z,0.00
2022-08-03T03:14:03.144Z,0.00
2022-08-03T03:15:03.275Z,0.00
2022-08-03T03:16:03.205Z,0.00
2022-08-03T03:17:02.282Z,0.00
2022-08-03T03:18:02.814Z,0.00
2022-08-03T03:19:02.690Z,0.00
2022-08-03T03:20:02.977Z,0.00
2022-08-03T03:21:02.525Z,4.00
2022-08-03T03:22:02.644Z,4.00
2022-08-03T03:23:02.806Z,4.00
2022-08-03T03:24:02.856Z,0.00
2022-08-03T03:25:02.823Z,4.00
2022-08-03T03:26:02.949Z,4.00
2022-08-03T03:27:03.017Z,4.00
2022-08-03T03:28:03.024Z,4.00
2022-08-03T03:29:03.294Z,4.00
2022-08-03T03:30:03.328Z,8.00
2022-08-03T03:31:03.287Z,8.00
2022-08-03T03:32:02.707Z,8.00
2022-08-03T03:33:02.115Z,12.00
2022-08-03T03:34:02.520Z,8.00
2022-08-03T03:35:02.499Z,12.00
2022-08-03T03:36:02.726Z,16.00
2022-08-03T03:37:02.731Z,16.00
2022-08-03T03:38:03.070Z,20.00
2022-08-03T03:39:15.754Z,20.00
2022-08-03T03:40:02.917Z,28.00
2022-08-03T03:41:03.159Z,32.00
2022-08-03T03:42:02.367Z,36.00
2022-08-03T03:43:02.433Z,40.00
2022-08-03T03:44:02.372Z,44.00
2022-08-03T03:45:03.082Z,52.00
2022-08-03T03:46:02.772Z,64.00
2022-08-03T03:47:03.029Z,72.00
2022-08-03T03:48:03.217Z,80.00
2022-08-03T03:49:03.493Z,88.00
2022-08-03T03:50:02.990Z,100.00
2022-08-03T03:51:02.969Z,112.00
2022-08-03T03:52:03.279Z,124.00
2022-08-03T03:53:03.573Z,140.00
2022-08-03T03:54:03.110Z,152.00
2022-08-03T03:55:03.569Z,164.00
2022-08-03T03:56:03.273Z,180.00
2022-08-03T03:57:02.987Z,196.00
2022-08-03T03:58:02.592Z,212.00
2022-08-03T03:59:02.368Z,228.00
2022-08-03T04:00:02.391Z,244.00
2022-08-03T04:01:02.410Z,268.00
2022-08-03T04:02:03.323Z,284.00
2022-08-03T04:03:03.678Z,308.00
2022-08-03T04:04:03.754Z,324.00
2022-08-03T04:05:03.639Z,348.00
2022-08-03T04:06:03.860Z,376.00
2022-08-03T04:07:03.502Z,400.00
2022-08-03T04:08:03.100Z,432.00
2022-08-03T04:09:03.185Z,464.00
2022-08-03T04:10:14.075Z,504.00
2022-08-03T04:11:02.853Z,536.00
2022-08-03T04:12:03.616Z,580.00
2022-08-03T04:13:03.760Z,616.00
2022-08-03T04:14:03.884Z,660.00
2022-08-03T04:15:03.930Z,700.00
2022-08-03T04:16:03.407Z,740.00
2022-08-03T04:17:02.906Z,776.00
2022-08-03T04:18:02.646Z,808.00
2022-08-03T04:19:02.930Z,844.00
2022-08-03T04:20:03.289Z,888.00
2022-08-03T04:21:02.818Z,920.00
2022-08-03T04:22:02.869Z,964.00
2022-08-03T04:23:03.120Z,1000.00
2022-08-03T04:24:02.953Z,1044.00
2022-08-03T04:25:03.161Z,1084.00
2022-08-03T04:26:02.698Z,1116.00
2022-08-03T04:27:03.508Z,1152.00
2022-08-03T04:28:08.221Z,1188.00
2022-08-03T04:29:02.849Z,1220.00
2022-08-03T04:30:02.818Z,1252.00
2022-08-03T04:31:03.427Z,1288.00
2022-08-03T04:32:03.800Z,1332.00
2022-08-03T04:33:03.650Z,1376.00
2022-08-03T04:34:03.522Z,1420.00
2022-08-03T04:35:03.890Z,1456.00
2022-08-03T04:36:03.915Z,1484.00
2022-08-03T04:37:04.138Z,1524.00
2022-08-03T04:38:03.964Z,1552.00
2022-08-03T04:39:03.986Z,1572.00
2022-08-03T04:40:03.774Z,1588.00
2022-08-03T04:41:04.206Z,1588.00
2022-08-03T04:42:08.506Z,1596.00
2022-08-03T04:43:03.559Z,1596.00
2022-08-03T04:44:03.464Z,1596.00
2022-08-03T04:45:04.011Z,1616.00
2022-08-03T04:46:03.867Z,1620.00
2022-08-03T04:47:04.389Z,1620.00
2022-08-03T04:48:04.533Z,1620.00
2022-08-03T04:49:04.053Z,1624.00
2022-08-03T04:50:04.915Z,1620.00
2022-08-03T04:51:03.540Z,1608.00
2022-08-03T04:52:04.112Z,1620.00
2022-08-03T04:53:03.988Z,1644.00
2022-08-03T04:54:03.586Z,1684.00
2022-08-03T04:55:03.878Z,1740.00
2022-08-03T04:56:03.840Z,1796.00
2022-08-03T04:57:04.399Z,1840.00
2022-08-03T04:58:03.877Z,1848.00
2022-08-03T04:59:04.449Z,1872.00
2022-08-03T05:00:04.326Z,1908.00
2022-08-03T05:01:04.517Z,1960.00
2022-08-03T05:02:03.228Z,2016.00
2022-08-03T05:03:03.118Z,2076.00
2022-08-03T05:04:03.014Z,2140.00
2022-08-03T05:05:02.958Z,2172.00
2022-08-03T05:06:11.299Z,2172.00
2022-08-03T05:07:12.249Z,2164.00
2022-08-03T05:08:03.564Z,2176.00
2022-08-03T05:09:03.463Z,2172.00
2022-08-03T05:10:03.476Z,2220.00
2022-08-03T05:11:03.184Z,2280.00
2022-08-03T05:12:03.742Z,2296.00
2022-08-03T05:13:03.578Z,2296.00
2022-08-03T05:14:03.696Z,2404.00
2022-08-03T05:15:03.534Z,2576.00
2022-08-03T05:16:03.193Z,2616.00
2022-08-03T05:17:03.805Z,2688.00
2022-08-03T05:18:03.584Z,2952.00
2022-08-03T05:19:03.443Z,2896.00
2022-08-03T05:20:03.801Z,3020.00
2022-08-03T05:21:03.696Z,3132.00
2022-08-03T05:22:02.638Z,3248.00
2022-08-03T05:23:02.802Z,3324.00
2022-08-03T05:24:02.737Z,3340.00
2022-08-03T05:25:03.341Z,3464.00
2022-08-03T05:26:03.225Z,3488.00
2022-08-03T05:27:03.112Z,3596.00
2022-08-03T05:28:03.706Z,3704.00
2022-08-03T05:29:03.438Z,3772.00
2022-08-03T05:30:30.938Z,3872.00
2022-08-03T05:31:03.235Z,3988.00
2022-08-03T05:32:08.027Z,4044.00
2022-08-03T05:33:03.015Z,4124.00
2022-08-03T05:34:02.924Z,4224.00
2022-08-03T05:35:55.843Z,4188.00
2022-08-03T05:36:04.453Z,4216.00
2022-08-03T05:37:03.450Z,4680.00
2022-08-03T05:38:03.406Z,5268.00
2022-08-03T05:39:03.446Z,6044.00
2022-08-03T05:40:03.346Z,6216.00
2022-08-03T05:41:21.089Z,5756.00
2022-08-03T05:42:03.047Z,4832.00
2022-08-03T05:43:03.081Z,4004.00
2022-08-03T05:44:02.827Z,3764.00
2022-08-03T05:45:03.340Z,4148.00
2022-08-03T05:46:11.696Z,4512.00
2022-08-03T05:47:02.813Z,4764.00
2022-08-03T05:48:03.666Z,4952.00
2022-08-03T05:49:03.205Z,4996.00
2022-08-03T05:50:03.641Z,5296.00
2022-08-03T05:51:03.406Z,5488.00
2022-08-03T05:52:12.396Z,5676.00
2022-08-03T05:53:03.897Z,5776.00
2022-08-03T05:54:03.673Z,6052.00
2022-08-03T05:55:03.454Z,6344.00
2022-08-03T05:56:03.218Z,6576.00
2022-08-03T05:57:03.436Z,6836.00
2022-08-03T05:58:03.629Z,7348.00
2022-08-03T05:59:22.373Z,7768.00
2022-08-03T06:00:03.693Z,8400.00
2022-08-03T06:01:03.563Z,8940.00
2022-08-03T06:02:03.050Z,9364.00
2022-08-03T06:03:03.036Z,9728.00
2022-08-03T06:04:03.579Z,10140.00
2022-08-03T06:05:03.396Z,10464.00
2022-08-03T06:06:03.261Z,10676.00
2022-08-03T06:07:03.241Z,10848.00
2022-08-03T06:08:03.513Z,10972.00
2022-08-03T06:09:03.677Z,11188.00
2022-08-03T06:10:33.803Z,11136.00
2022-08-03T06:11:03.101Z,11276.00
2022-08-03T06:12:03.200Z,11728.00
2022-08-03T06:13:02.702Z,12044.00
2022-08-03T06:14:02.743Z,12540.00
2022-08-03T06:15:02.612Z,13020.00
2022-08-03T06:16:03.185Z,13404.00
2022-08-03T06:17:03.255Z,13984.00
2022-08-03T06:18:03.245Z,14496.00
2022-08-03T06:19:03.118Z,14880.00
2022-08-03T06:20:03.004Z,15424.00
2022-08-03T06:21:14.435Z,16512.00
2022-08-03T06:22:03.187Z,16000.00
2022-08-03T06:23:03.418Z,15168.00
2022-08-03T06:24:03.630Z,16320.00
2022-08-03T06:25:04.816Z,20928.00
2022-08-03T06:26:03.162Z,19136.00
2022-08-03T06:27:02.842Z,17312.00
2022-08-03T06:28:02.808Z,14752.00
2022-08-03T06:29:03.960Z,15072.00
2022-08-03T06:30:02.653Z,14720.00
2022-08-03T06:31:02.655Z,14496.00
2022-08-03T06:32:03.199Z,14240.00
2022-08-03T06:33:03.203Z,8892.00
2022-08-03T06:34:30.698Z,14464.00
2022-08-03T06:35:03.338Z,14152.00
2022-08-03T06:36:03.241Z,14068.00
2022-08-03T06:37:03.567Z,14016.00
2022-08-03T06:38:03.766Z,14032.00
2022-08-03T06:39:03.623Z,14076.00
2022-08-03T06:40:03.539Z,14104.00
2022-08-03T06:41:03.527Z,14204.00
2022-08-03T06:42:03.206Z,14240.00
2022-08-03T06:43:03.155Z,14308.00
2022-08-03T06:44:04.466Z,14360.00
2022-08-03T06:45:03.324Z,14484.00
2022-08-03T06:46:03.249Z,14564.00
2022-08-03T06:47:02.984Z,14624.00
2022-08-03T06:48:03.037Z,14712.00
2022-08-03T06:49:03.036Z,14792.00
2022-08-03T06:50:16.508Z,14852.00
2022-08-03T06:51:02.905Z,14920.00
2022-08-03T06:52:06.864Z,15136.00
2022-08-03T06:53:03.425Z,15296.00
2022-08-03T06:54:02.576Z,15392.00
2022-08-03T06:55:03.479Z,15488.00
2022-08-03T06:56:03.696Z,15648.00
2022-08-03T06:57:03.685Z,15776.00
2022-08-03T06:58:03.762Z,15936.00
2022-08-03T06:59:03.732Z,16032.00
2022-08-03T07:00:09.607Z,16096.00
2022-08-03T07:01:03.373Z,16160.00
2022-08-03T07:02:04.000Z,16288.00
2022-08-03T07:03:03.915Z,16416.00
2022-08-03T07:04:04.528Z,16544.00
2022-08-03T07:05:03.845Z,16704.00
2022-08-03T07:06:03.800Z,16864.00
2022-08-03T07:07:03.380Z,17024.00
2022-08-03T07:08:03.305Z,17088.00
2022-08-03T07:09:03.426Z,15904.00
2022-08-03T07:10:03.924Z,15392.00
2022-08-03T07:11:03.672Z,16512.00
2022-08-03T07:12:04.116Z,17120.00
2022-08-03T07:13:03.859Z,14812.00
2022-08-03T07:14:03.811Z,15280.00
2022-08-03T07:15:04.393Z,18016.00
2022-08-03T07:16:04.492Z,18048.00
2022-08-03T07:17:04.646Z,18208.00
2022-08-03T07:18:04.317Z,18176.00
2022-08-03T07:19:04.670Z,18240.00
2022-08-03T07:20:04.134Z,18336.00
2022-08-03T07:21:04.243Z,18240.00
2022-08-03T07:22:04.496Z,18400.00
2022-08-03T07:23:03.648Z,18592.00
2022-08-03T07:24:03.625Z,18720.00
2022-08-03T07:25:03.856Z,18848.00
2022-08-03T07:26:03.633Z,18912.00
2022-08-03T07:27:04.180Z,19008.00
2022-08-03T07:28:03.858Z,19104.00
2022-08-03T07:29:04.415Z,19072.00
2022-08-03T07:30:04.424Z,19264.00
2022-08-03T07:31:04.393Z,19424.00
2022-08-03T07:32:04.318Z,19520.00
2022-08-03T07:33:04.122Z,19712.00
2022-08-03T07:34:04.081Z,19712.00
2022-08-03T07:35:03.900Z,19776.00
2022-08-03T07:36:03.911Z,19872.00
2022-08-03T07:37:04.526Z,20000.00
2022-08-03T07:38:04.521Z,20064.00
2022-08-03T07:39:15.318Z,20160.00
2022-08-03T07:40:04.310Z,20256.00
2022-08-03T07:41:04.134Z,20416.00
2022-08-03T07:42:03.864Z,20480.00
2022-08-03T07:43:03.940Z,20544.00
2022-08-03T07:44:03.989Z,20800.00
2022-08-03T07:45:04.002Z,20832.00
2022-08-03T07:46:04.028Z,20896.00
2022-08-03T07:47:04.126Z,21056.00
2022-08-03T07:48:07.534Z,21184.00
2022-08-03T07:49:03.874Z,21312.00
2022-08-03T07:50:04.123Z,21344.00
2022-08-03T07:51:03.741Z,20832.00
2022-08-03T07:52:03.979Z,20704.00
2022-08-03T07:53:03.883Z,21536.00
2022-08-03T07:54:03.855Z,21536.00
2022-08-03T07:55:04.522Z,21792.00
2022-08-03T07:56:06.743Z,17536.00
2022-08-03T07:57:03.800Z,19104.00
2022-08-03T07:58:03.383Z,22144.00
2022-08-03T07:59:03.549Z,22144.00
2022-08-03T08:00:03.947Z,22144.00
2022-08-03T08:01:03.997Z,22272.00
2022-08-03T08:02:02.993Z,22336.00
2022-08-03T08:03:02.897Z,22368.00
2022-08-03T08:04:02.886Z,22432.00
2022-08-03T08:05:05.755Z,22688.00
2022-08-03T08:06:02.663Z,22784.00
2022-08-03T08:07:03.335Z,22944.00
2022-08-03T08:08:02.696Z,23136.00
2022-08-03T08:09:02.921Z,23264.00
2022-08-03T08:10:02.956Z,23392.00
2022-08-03T08:11:02.933Z,23520.00
2022-08-03T08:12:03.570Z,23520.00
2022-08-03T08:13:03.160Z,23584.00
2022-08-03T08:14:03.114Z,23616.00
2022-08-03T08:15:03.335Z,23680.00
2022-08-03T08:16:03.292Z,23840.00
2022-08-03T08:17:07.234Z,23904.00
2022-08-03T08:18:03.516Z,24000.00
2022-08-03T08:19:03.371Z,24160.00
2022-08-03T08:20:03.246Z,24288.00
2022-08-03T08:21:03.231Z,24288.00
2022-08-03T08:22:03.813Z,24448.00
2022-08-03T08:23:04.182Z,24512.00
2022-08-03T08:24:03.759Z,24640.00
2022-08-03T08:25:03.819Z,24736.00
2022-08-03T08:26:03.385Z,24800.00
2022-08-03T08:27:04.080Z,24960.00
2022-08-03T08:28:29.133Z,24960.00
2022-08-03T08:29:03.965Z,24672.00
2022-08-03T08:30:10.412Z,24832.00
2022-08-03T08:31:03.809Z,25056.00
2022-08-03T08:32:02.763Z,25344.00
2022-08-03T08:33:03.264Z,25536.00
2022-08-03T08:34:04.316Z,25504.00
2022-08-03T08:35:03.239Z,25632.00
2022-08-03T08:36:02.867Z,25760.00
2022-08-03T08:37:03.335Z,25920.00
2022-08-03T08:38:05.668Z,25952.00
2022-08-03T08:39:03.201Z,26112.00
2022-08-03T08:40:03.360Z,26272.00
2022-08-03T08:41:02.941Z,24992.00
2022-08-03T08:42:02.891Z,26400.00
2022-08-03T08:43:03.241Z,26432.00
2022-08-03T08:44:03.329Z,26592.00
2022-08-03T08:45:03.072Z,26752.00
2022-08-03T08:46:02.655Z,26784.00
2022-08-03T08:47:03.551Z,26912.00
2022-08-03T08:48:07.923Z,27040.00
2022-08-03T08:49:04.881Z,27168.00
2022-08-03T08:50:10.123Z,27200.00
2022-08-03T08:51:03.784Z,27456.00
2022-08-03T08:52:03.835Z,27680.00
2022-08-03T08:53:04.071Z,27616.00
2022-08-03T08:54:03.568Z,27872.00
2022-08-03T08:55:03.974Z,27840.00
2022-08-03T08:56:03.525Z,27872.00
2022-08-03T08:57:03.100Z,28096.00
2022-08-03T08:58:03.634Z,28224.00
2022-08-03T08:59:03.273Z,28192.00
2022-08-03T09:00:03.261Z,28128.00
2022-08-03T09:01:03.310Z,28320.00
2022-08-03T09:02:03.235Z,28512.00
2022-08-03T09:03:03.789Z,28736.00
2022-08-03T09:04:03.415Z,29120.00
2022-08-03T09:05:07.341Z,29440.00
2022-08-03T09:06:03.744Z,29600.00
2022-08-03T09:07:29.017Z,29728.00
2022-08-03T09:08:03.919Z,29856.00
2022-08-03T09:09:03.333Z,29792.00
2022-08-03T09:10:11.646Z,29984.00
2022-08-03T09:11:03.706Z,30016.00
2022-08-03T09:12:35.051Z,30304.00
2022-08-03T09:13:02.924Z,30400.00
2022-08-03T09:14:03.317Z,30528.00
2022-08-03T09:15:16.439Z,30688.00
2022-08-03T09:16:02.957Z,30592.00
2022-08-03T09:17:03.505Z,30848.00
2022-08-03T09:18:03.317Z,30656.00
2022-08-03T09:19:03.959Z,31104.00
2022-08-03T09:20:03.990Z,31264.00
2022-08-03T09:21:24.217Z,31360.00
2022-08-03T09:22:03.928Z,31552.00
2022-08-03T09:23:19.003Z,31744.00
2022-08-03T09:24:05.655Z,31904.00
2022-08-03T09:25:23.470Z,32032.00
2022-08-03T09:26:03.600Z,32160.00
2022-08-03T09:27:03.354Z,32384.00
2022-08-03T09:28:03.707Z,32448.00
2022-08-03T09:29:09.341Z,32576.00
2022-08-03T09:30:03.529Z,32736.00
2022-08-03T09:31:04.176Z,32704.00
2022-08-03T09:32:04.161Z,33152.00
2022-08-03T09:33:04.020Z,33248.00
2022-08-03T09:34:04.174Z,33568.00
2022-08-03T09:35:04.098Z,33696.00
2022-08-03T09:36:04.497Z,33920.00
2022-08-03T09:37:03.103Z,34080.00
2022-08-03T09:38:11.917Z,34144.00
2022-08-03T09:39:03.273Z,34368.00
2022-08-03T09:40:03.255Z,34688.00
2022-08-03T09:41:03.809Z,34880.00
2022-08-03T09:42:03.353Z,34976.00
2022-08-03T09:43:03.340Z,35200.00
2022-08-03T09:44:03.820Z,35360.00
2022-08-03T09:45:03.327Z,35648.00
2022-08-03T09:46:04.036Z,35904.00
2022-08-03T09:47:03.488Z,35776.00
2022-08-03T09:48:03.572Z,35584.00
2022-08-03T09:49:03.997Z,35936.00
2022-08-03T09:50:03.577Z,36416.00
2022-08-03T09:51:14.041Z,36640.00
2022-08-03T09:52:33.608Z,36736.00
2022-08-03T09:53:03.879Z,36704.00
2022-08-03T09:54:03.543Z,36992.00
2022-08-03T09:55:03.999Z,37216.00
2022-08-03T09:56:36.006Z,37152.00
2022-08-03T09:57:03.403Z,37216.00
2022-08-03T09:58:03.945Z,37440.00
2022-08-03T09:59:03.541Z,37088.00
2022-08-03T10:00:07.992Z,36800.00
2022-08-03T10:01:03.556Z,37248.00
2022-08-03T10:02:03.033Z,37184.00
2022-08-03T10:03:03.305Z,37216.00
2022-08-03T10:04:04.977Z,36928.00
2022-08-03T10:05:03.242Z,36704.00
2022-08-03T10:06:02.931Z,36416.00
2022-08-03T10:07:03.607Z,36192.00
2022-08-03T10:08:03.842Z,35936.00
2022-08-03T10:09:03.451Z,34688.00
2022-08-03T10:10:29.013Z,18452.00
2022-08-03T10:11:03.601Z,36960.00
2022-08-03T10:12:03.037Z,36864.00
2022-08-03T10:13:03.139Z,34560.00
2022-08-03T10:14:03.031Z,26080.00
2022-08-03T10:15:03.504Z,30336.00
2022-08-03T10:16:22.183Z,28096.00
2022-08-03T10:17:03.688Z,28288.00
2022-08-03T10:18:03.503Z,24128.00
2022-08-03T10:19:03.368Z,24512.00
2022-08-03T10:20:03.851Z,23968.00
2022-08-03T10:21:03.675Z,22720.00
2022-08-03T10:22:03.852Z,21568.00
2022-08-03T10:23:03.747Z,21120.00
2022-08-03T10:24:03.632Z,17632.00
2022-08-03T10:25:04.218Z,13040.00
2022-08-03T10:26:03.990Z,11288.00
2022-08-03T10:27:03.395Z,8824.00
2022-08-03T10:28:03.496Z,7824.00
2022-08-03T10:29:03.195Z,9324.00
2022-08-03T10:30:03.265Z,8016.00
2022-08-03T10:31:03.155Z,7900.00
2022-08-03T10:32:04.081Z,7744.00
2022-08-03T10:33:03.650Z,7716.00
2022-08-03T10:34:03.884Z,7728.00
2022-08-03T10:35:13.035Z,7760.00
2022-08-03T10:36:03.889Z,7792.00
2022-08-03T10:37:04.365Z,7820.00
2022-08-03T10:38:04.088Z,7924.00
2022-08-03T10:39:04.403Z,7932.00
2022-08-03T10:40:04.071Z,7828.00
2022-08-03T10:41:04.507Z,8120.00
2022-08-03T10:42:03.974Z,8272.00
2022-08-03T10:43:03.617Z,9136.00
2022-08-03T10:44:04.086Z,8940.00
2022-08-03T10:45:03.855Z,9200.00
2022-08-03T10:46:03.658Z,8916.00
2022-08-03T10:47:03.650Z,9656.00
2022-08-03T10:48:03.144Z,11596.00
2022-08-03T10:49:03.914Z,14100.00
2022-08-03T10:50:03.633Z,17440.00
2022-08-03T10:51:03.733Z,13468.00
2022-08-03T10:52:12.941Z,12076.00
2022-08-03T10:53:04.130Z,9772.00
2022-08-03T10:54:04.030Z,10304.00
2022-08-03T10:55:07.715Z,10552.00
2022-08-03T10:56:04.144Z,11052.00
2022-08-03T10:57:13.539Z,12436.00
2022-08-03T10:58:07.942Z,9852.00
2022-08-03T10:59:04.004Z,10848.00
2022-08-03T11:00:04.088Z,10232.00
2022-08-03T11:01:03.983Z,9660.00
2022-08-03T11:02:03.557Z,9484.00
2022-08-03T11:03:03.252Z,9244.00
2022-08-03T11:04:09.008Z,9188.00
2022-08-03T11:05:03.641Z,9136.00
2022-08-03T11:06:03.436Z,8604.00
2022-08-03T11:07:03.799Z,8732.00
2022-08-03T11:08:03.322Z,8540.00
2022-08-03T11:09:03.290Z,8604.00
2022-08-03T11:10:06.682Z,8836.00
2022-08-03T11:11:03.717Z,8200.00
2022-08-03T11:12:04.056Z,8176.00
2022-08-03T11:13:03.460Z,7816.00
2022-08-03T11:14:03.566Z,8352.00
2022-08-03T11:15:03.567Z,16352.00
2022-08-03T11:16:06.664Z,16808.00
2022-08-03T11:17:02.689Z,8664.00
2022-08-03T11:18:02.871Z,9088.00
2022-08-03T11:19:02.814Z,9912.00
2022-08-03T11:20:03.387Z,9748.00
2022-08-03T11:21:03.169Z,10844.00
2022-08-03T11:22:02.878Z,10880.00
2022-08-03T11:23:03.030Z,12500.00
2022-08-03T11:24:06.598Z,13004.00
2022-08-03T11:25:03.180Z,14188.00
2022-08-03T11:26:03.052Z,16352.00
2022-08-03T11:27:05.839Z,16992.00
2022-08-03T11:28:03.109Z,18432.00
2022-08-03T11:29:03.686Z,21024.00
2022-08-03T11:30:03.518Z,23712.00
2022-08-03T11:31:03.292Z,34496.00
2022-08-03T11:32:03.704Z,36608.00
2022-08-03T11:33:03.866Z,38176.00
2022-08-03T11:34:04.330Z,36768.00
2022-08-03T11:35:04.098Z,40224.00
2022-08-03T11:36:03.810Z,41152.00
2022-08-03T11:37:04.422Z,43104.00
2022-08-03T11:38:05.206Z,43808.00
2022-08-03T11:39:03.459Z,45248.00
2022-08-03T11:40:03.604Z,45984.00
2022-08-03T11:41:03.932Z,47488.00
2022-08-03T11:42:03.642Z,47520.00
2022-08-03T11:43:03.487Z,48192.00
2022-08-03T11:44:03.754Z,48288.00
2022-08-03T11:45:03.808Z,48480.00
2022-08-03T11:46:03.594Z,45920.00
2022-08-03T11:47:04.189Z,46560.00
2022-08-03T11:48:04.096Z,49728.00
2022-08-03T11:49:07.820Z,49440.00
2022-08-03T11:50:04.420Z,48608.00
2022-08-03T11:51:04.210Z,47648.00
2022-08-03T11:52:03.879Z,39424.00
2022-08-03T11:53:04.382Z,41088.00
2022-08-03T11:54:04.122Z,46752.00
2022-08-03T11:55:04.101Z,41312.00
2022-08-03T11:56:04.568Z,41664.00
2022-08-03T11:57:04.467Z,36928.00
2022-08-03T11:59:01.382Z,13204.00
2022-08-03T11:59:20.749Z,38848.00
2022-08-03T12:00:03.312Z,15116.00
2022-08-03T12:01:03.563Z,12836.00
2022-08-03T12:02:03.772Z,13488.00
2022-08-03T12:03:03.326Z,12036.00
2022-08-03T12:04:02.861Z,13044.00
2022-08-03T12:05:03.400Z,10884.00
2022-08-03T12:06:02.727Z,12876.00
2022-08-03T12:07:02.762Z,13512.00
2022-08-03T12:08:06.695Z,12956.00
2022-08-03T12:09:03.064Z,12704.00
2022-08-03T12:10:03.174Z,11572.00
2022-08-03T12:11:03.577Z,7244.00
2022-08-03T12:12:03.202Z,10160.00
2022-08-03T12:13:03.240Z,10988.00
2022-08-03T12:14:49.235Z,9824.00
2022-08-03T12:15:03.618Z,9996.00
2022-08-03T12:16:03.447Z,9740.00
2022-08-03T12:17:03.212Z,9668.00